Time;durP1;ratioP1;P1;durP2;ratioP2;P2;SDS_P1;SDS_P2;PMS_P1;PMS_P2;Temp;Humidity;BMP_temperature;BMP_pressure;BME280_temperature;BME280_humidity;BME280_pressure;Samples;Min_cycle;Max_cycle;Signal;HPM_P1;HPM_P2
2023/06/23 00:00:11;;;;;;;;;;;27.70;50.30;;;;;;5061080;28;19959;-53
2023/06/23 00:02:37;;;;;;;;;;;27.60;50.30;;;;;;5067146;28;20015;-52
2023/06/23 00:05:03;;;;;;;;;;;27.60;50.50;;;;;;5062347;28;19999;-53
2023/06/23 00:07:29;;;;;;;;;;;27.60;50.70;;;;;;5067875;28;19916;-53
2023/06/23 00:09:54;;;;;;;;;;;27.60;50.60;;;;;;5064911;28;19999;-53
2023/06/23 00:12:20;;;;;;;;;;;27.60;50.80;;;;;;5093122;28;19920;-53
2023/06/23 00:14:45;;;;;;;;;;;27.60;50.80;;;;;;5063538;28;19920;-53
2023/06/23 00:17:11;;;;;;;;;;;27.60;51.10;;;;;;5058414;28;19912;-53
2023/06/23 00:19:36;;;;;;;;;;;27.60;50.50;;;;;;5061080;28;19921;-53
2023/06/23 00:22:03;;;;;;;;;;;27.60;51.30;;;;;;5056409;28;19960;-53
2023/06/23 00:24:30;;;;;;;;;;;27.50;51.60;;;;;;5065962;28;20004;-53
2023/06/23 00:26:56;;;;;;;;;;;27.50;51.70;;;;;;5067868;28;20003;-53
2023/06/23 00:29:21;;;;;;;;;;;27.50;51.70;;;;;;5059030;28;20043;-53
2023/06/23 00:31:47;;;;;;;;;;;27.50;51.20;;;;;;5063651;28;19916;-53
2023/06/23 00:34:12;;;;;;;;;;;27.50;52.70;;;;;;5061284;28;19913;-53
2023/06/23 00:36:38;;;;;;;;;;;27.50;51.80;;;;;;5069769;28;19909;-53
2023/06/23 00:39:03;;;;;;;;;;;27.50;51.80;;;;;;5075409;28;19908;-53
2023/06/23 00:41:29;;;;;;;;;;;27.50;51.80;;;;;;5074457;28;20292;-53
2023/06/23 00:43:59;;;;;;;;;;;27.50;51.40;;;;;;5064354;28;19920;-53
2023/06/23 00:46:24;;;;;;;;;;;27.50;51.20;;;;;;5054744;28;19921;-53
2023/06/23 00:48:50;;;;;;;;;;;27.50;52.10;;;;;;5066048;28;19912;-53
2023/06/23 00:51:16;;;;;;;;;;;27.50;51.50;;;;;;5076223;28;19908;-53
2023/06/23 00:53:42;;;;;;;;;;;27.50;52.10;;;;;;5094067;28;19908;-53
2023/06/23 00:56:08;;;;;;;;;;;27.40;52.30;;;;;;5079753;28;20391;-53
2023/06/23 00:58:34;;;;;;;;;;;27.50;51.60;;;;;;5074978;28;19956;-54
2023/06/23 01:01:00;;;;;;;;;;;27.50;51.90;;;;;;5074801;28;20003;-53
2023/06/23 01:03:25;;;;;;;;;;;27.50;52.40;;;;;;5067268;28;20012;-53
2023/06/23 01:05:51;;;;;;;;;;;27.50;52.20;;;;;;5065446;28;20027;-52
2023/06/23 01:08:25;;;;;;;;;;;27.50;52.30;;;;;;5072411;28;19938;-53
2023/06/23 01:10:59;;;;;;;;;;;27.40;52.40;;;;;;5068120;28;19913;-53
2023/06/23 01:13:34;;;;;;;;;;;27.40;52.50;;;;;;5107279;28;19912;-53
2023/06/23 01:16:14;;;;;;;;;;;27.40;51.90;;;;;;5070953;28;19959;-53
2023/06/23 01:18:46;;;;;;;;;;;27.40;52.60;;;;;;5091843;28;19917;-53
2023/06/23 01:21:12;;;;;;;;;;;27.40;52.00;;;;;;5064005;28;19913;-53
2023/06/23 01:23:57;;;;;;;;;;;27.40;52.80;;;;;;5061902;28;19950;-53
2023/06/23 01:26:22;;;;;;;;;;;27.40;52.50;;;;;;5056279;28;19920;-53
2023/06/23 01:28:49;;;;;;;;;;;27.40;52.90;;;;;;5062425;28;20373;-53
2023/06/23 01:31:17;;;;;;;;;;;27.30;52.30;;;;;;5051185;28;20326;-53
2023/06/23 01:33:44;;;;;;;;;;;27.30;52.80;;;;;;5052441;28;19942;-53
2023/06/23 01:36:12;;;;;;;;;;;27.30;52.80;;;;;;5054598;28;20254;-53
2023/06/23 01:38:38;;;;;;;;;;;27.30;53.00;;;;;;5092355;28;19912;-52
2023/06/23 01:41:06;;;;;;;;;;;27.30;52.60;;;;;;5091112;28;19924;-52
2023/06/23 01:43:32;;;;;;;;;;;27.30;53.10;;;;;;5087720;28;20646;-53
2023/06/23 01:45:59;;;;;;;;;;;27.30;52.60;;;;;;5066895;28;20015;-53
2023/06/23 01:48:24;;;;;;;;;;;27.30;52.80;;;;;;5067279;28;20027;-54
2023/06/23 01:50:50;;;;;;;;;;;27.30;53.10;;;;;;5089160;28;20016;-53
2023/06/23 01:53:15;;;;;;;;;;;27.30;53.00;;;;;;5059594;28;19912;-52
2023/06/23 01:55:41;;;;;;;;;;;27.30;53.00;;;;;;5089350;28;19913;-53
2023/06/23 01:58:06;;;;;;;;;;;27.30;52.50;;;;;;5061379;28;19913;-53
2023/06/23 02:00:32;;;;;;;;;;;27.30;53.20;;;;;;5061354;28;20551;-53
2023/06/23 02:02:57;;;;;;;;;;;27.30;52.90;;;;;;5060610;28;20399;-53
2023/06/23 02:05:23;;;;;;;;;;;27.30;52.80;;;;;;5060482;28;20398;-53
2023/06/23 02:07:48;;;;;;;;;;;27.30;53.40;;;;;;5061599;28;19912;-53
2023/06/23 02:10:15;;;;;;;;;;;27.30;53.40;;;;;;5064189;28;19916;-53
2023/06/23 02:12:41;;;;;;;;;;;27.30;53.40;;;;;;5105403;28;19908;-52
2023/06/23 02:15:08;;;;;;;;;;;27.20;53.10;;;;;;5075610;28;19913;-53
2023/06/23 02:17:33;;;;;;;;;;;27.30;52.90;;;;;;5052583;28;20008;-55
2023/06/23 02:19:59;;;;;;;;;;;27.20;53.20;;;;;;5062023;28;20038;-53
2023/06/23 02:22:24;;;;;;;;;;;27.30;53.10;;;;;;5059008;28;19967;-54
2023/06/23 02:24:50;;;;;;;;;;;27.30;53.40;;;;;;5064417;28;19912;-54
2023/06/23 02:27:15;;;;;;;;;;;27.20;53.20;;;;;;5092697;28;19965;-53
2023/06/23 02:29:41;;;;;;;;;;;27.20;53.00;;;;;;5072531;28;19920;-53
2023/06/23 02:32:07;;;;;;;;;;;27.30;52.60;;;;;;5059889;28;19956;-53
2023/06/23 02:34:33;;;;;;;;;;;27.30;52.60;;;;;;5059962;28;19960;-53
2023/06/23 02:36:58;;;;;;;;;;;27.30;53.30;;;;;;5057658;28;19920;-53
2023/06/23 02:39:25;;;;;;;;;;;27.20;52.90;;;;;;5052788;28;19913;-53
2023/06/23 02:41:51;;;;;;;;;;;27.20;53.20;;;;;;5079893;28;19913;-53
2023/06/23 02:44:17;;;;;;;;;;;27.20;53.00;;;;;;5052744;28;19909;-53
2023/06/23 02:46:44;;;;;;;;;;;27.20;52.90;;;;;;5086505;28;20728;-53
2023/06/23 02:49:11;;;;;;;;;;;27.20;53.00;;;;;;5072927;28;20002;-53
2023/06/23 02:51:37;;;;;;;;;;;27.20;53.10;;;;;;5076813;28;19974;-54
2023/06/23 02:54:05;;;;;;;;;;;27.20;52.80;;;;;;5092344;28;19912;-54
2023/06/23 02:56:32;;;;;;;;;;;27.20;52.70;;;;;;5077727;28;19908;-53
2023/06/23 02:59:00;;;;;;;;;;;27.20;52.70;;;;;;5072079;28;19927;-53
2023/06/23 03:01:26;;;;;;;;;;;27.20;52.70;;;;;;5072413;28;19909;-55
2023/06/23 03:03:52;;;;;;;;;;;27.20;52.70;;;;;;5098871;28;19959;-55
2023/06/23 03:06:18;;;;;;;;;;;27.20;53.00;;;;;;5105137;28;19948;-52
2023/06/23 03:08:43;;;;;;;;;;;27.20;52.80;;;;;;5065664;28;19966;-52
2023/06/23 03:11:09;;;;;;;;;;;27.20;52.60;;;;;;5045952;28;19927;-54
2023/06/23 03:13:34;;;;;;;;;;;27.20;52.60;;;;;;5066656;28;20294;-54
2023/06/23 03:16:00;;;;;;;;;;;27.20;52.90;;;;;;5060283;28;20322;-54
2023/06/23 03:18:25;;;;;;;;;;;27.20;52.60;;;;;;5065778;28;19912;-54
2023/06/23 03:20:52;;;;;;;;;;;27.20;52.60;;;;;;5090265;28;19913;-53
2023/06/23 03:23:18;;;;;;;;;;;27.10;52.60;;;;;;5090870;28;19916;-54
2023/06/23 03:25:46;;;;;;;;;;;27.10;52.70;;;;;;5056704;28;19923;-54
2023/06/23 03:28:12;;;;;;;;;;;27.10;52.80;;;;;;5063235;28;19951;-53
2023/06/23 03:30:56;;;;;;;;;;;27.20;52.60;;;;;;5089271;28;19947;-54
2023/06/23 03:33:23;;;;;;;;;;;27.10;52.50;;;;;;5061228;28;20313;-53
2023/06/23 03:35:49;;;;;;;;;;;27.10;52.70;;;;;;5086748;28;20269;-54
2023/06/23 03:38:18;;;;;;;;;;;27.10;52.70;;;;;;5087409;28;19927;-53
2023/06/23 03:40:47;;;;;;;;;;;27.10;52.50;;;;;;5060127;28;20309;-54
2023/06/23 03:43:21;;;;;;;;;;;27.10;52.80;;;;;;5065729;28;19916;-53
2023/06/23 03:45:48;;;;;;;;;;;27.10;52.70;;;;;;5092987;28;19999;-53
2023/06/23 03:48:13;;;;;;;;;;;27.10;52.70;;;;;;5060334;28;19913;-54
2023/06/23 03:50:39;;;;;;;;;;;27.10;52.70;;;;;;5089371;28;20408;-53
2023/06/23 03:53:04;;;;;;;;;;;27.10;52.70;;;;;;5059270;28;19917;-53
2023/06/23 03:55:31;;;;;;;;;;;27.10;53.10;;;;;;5087850;28;19916;-53
2023/06/23 03:57:56;;;;;;;;;;;27.10;52.80;;;;;;5064245;28;19913;-54
2023/06/23 04:00:22;;;;;;;;;;;27.00;52.80;;;;;;5068404;28;19919;-54
2023/06/23 04:02:47;;;;;;;;;;;27.00;52.50;;;;;;5091027;28;20384;-54
2023/06/23 04:05:13;;;;;;;;;;;27.00;52.80;;;;;;5054117;28;20286;-53
2023/06/23 04:07:39;;;;;;;;;;;27.00;52.80;;;;;;5065040;28;19923;-53
2023/06/23 04:10:05;;;;;;;;;;;27.00;52.50;;;;;;5060707;28;19920;-54
2023/06/23 04:12:30;;;;;;;;;;;27.00;52.40;;;;;;5060197;28;19922;-53
2023/06/23 04:14:56;;;;;;;;;;;27.00;52.50;;;;;;5064176;28;19967;-53
2023/06/23 04:17:22;;;;;;;;;;;27.00;52.60;;;;;;5080375;28;19921;-53
2023/06/23 04:19:48;;;;;;;;;;;27.00;52.40;;;;;;5066091;28;19912;-53
2023/06/23 04:22:15;;;;;;;;;;;27.10;52.50;;;;;;5064516;28;19924;-53
2023/06/23 04:24:41;;;;;;;;;;;27.10;52.30;;;;;;5069766;28;19938;-53
2023/06/23 04:27:06;;;;;;;;;;;27.10;52.40;;;;;;5093553;28;19919;-54
2023/06/23 04:29:33;;;;;;;;;;;27.10;52.40;;;;;;5064200;28;19919;-54
2023/06/23 04:31:58;;;;;;;;;;;27.00;52.40;;;;;;5056217;28;19912;-54
2023/06/23 04:34:23;;;;;;;;;;;27.00;52.40;;;;;;5061433;28;20303;-54
2023/06/23 04:36:50;;;;;;;;;;;27.00;52.40;;;;;;5058962;28;19994;-53
2023/06/23 04:39:27;;;;;;;;;;;27.00;52.50;;;;;;5056286;28;19920;-54
2023/06/23 04:41:56;;;;;;;;;;;27.00;52.30;;;;;;5064204;28;19963;-54
2023/06/23 04:44:21;;;;;;;;;;;27.00;52.40;;;;;;5061375;28;19912;-53
2023/06/23 04:46:47;;;;;;;;;;;27.00;52.40;;;;;;5062046;28;19936;-54
2023/06/23 04:49:12;;;;;;;;;;;27.00;52.40;;;;;;5077034;28;19912;-53
2023/06/23 04:51:43;;;;;;;;;;;26.90;52.50;;;;;;5053766;28;19916;-53
2023/06/23 04:54:14;;;;;;;;;;;27.00;52.50;;;;;;5094306;28;19924;-54
2023/06/23 04:56:40;;;;;;;;;;;26.90;52.90;;;;;;5059366;28;19926;-54
2023/06/23 04:59:06;;;;;;;;;;;26.90;53.20;;;;;;5091681;28;19913;-54
2023/06/23 05:01:32;;;;;;;;;;;26.70;52.90;;;;;;5065277;28;19908;-53
2023/06/23 05:03:57;;;;;;;;;;;26.60;53.90;;;;;;5071224;28;19923;-54
2023/06/23 05:06:23;;;;;;;;;;;26.50;53.80;;;;;;5079092;28;19918;-54
2023/06/23 05:08:49;;;;;;;;;;;26.30;54.00;;;;;;5058739;28;19916;-53
2023/06/23 05:11:14;;;;;;;;;;;26.20;54.50;;;;;;5070951;28;19970;-53
2023/06/23 05:13:40;;;;;;;;;;;26.20;54.40;;;;;;5058357;28;19913;-53
2023/06/23 05:16:10;;;;;;;;;;;26.20;54.80;;;;;;5066818;28;19960;-54
2023/06/23 05:18:35;;;;;;;;;;;26.10;54.50;;;;;;5061014;28;19965;-52
2023/06/23 05:21:01;;;;;;;;;;;26.20;54.70;;;;;;5070582;28;20314;-53
2023/06/23 05:23:26;;;;;;;;;;;26.20;54.20;;;;;;5072908;28;19916;-53
2023/06/23 05:25:52;;;;;;;;;;;26.20;55.00;;;;;;5055015;28;19913;-53
2023/06/23 05:28:19;;;;;;;;;;;26.30;54.30;;;;;;5072603;28;19966;-53
2023/06/23 05:30:45;;;;;;;;;;;26.30;54.00;;;;;;5101689;28;20003;-53
2023/06/23 05:33:10;;;;;;;;;;;26.20;54.40;;;;;;5105930;28;20345;-53
2023/06/23 05:35:36;;;;;;;;;;;26.20;54.10;;;;;;5066813;28;19916;-53
2023/06/23 05:38:02;;;;;;;;;;;26.20;53.80;;;;;;5051078;28;19913;-53
2023/06/23 05:40:27;;;;;;;;;;;26.20;54.40;;;;;;5070157;28;20392;-53
2023/06/23 05:42:53;;;;;;;;;;;26.20;54.30;;;;;;5073121;28;19920;-53
2023/06/23 05:45:18;;;;;;;;;;;26.20;54.50;;;;;;5073464;28;19920;-53
2023/06/23 05:48:04;;;;;;;;;;;26.20;54.40;;;;;;5073578;28;19938;-53
2023/06/23 05:50:34;;;;;;;;;;;26.20;54.60;;;;;;5071869;28;19921;-55
2023/06/23 05:53:18;;;;;;;;;;;26.10;54.80;;;;;;5092130;28;19968;-53
2023/06/23 05:55:52;;;;;;;;;;;26.10;55.10;;;;;;5066813;28;20392;-53
2023/06/23 05:58:17;;;;;;;;;;;26.00;55.50;;;;;;5080761;28;20432;-52
2023/06/23 06:00:56;;;;;;;;;;;25.90;55.60;;;;;;5095272;28;20011;-53
2023/06/23 06:03:24;;;;;;;;;;;25.90;56.10;;;;;;5069511;28;20015;-53
2023/06/23 06:05:52;;;;;;;;;;;25.90;55.40;;;;;;5072714;28;20000;-52
2023/06/23 06:08:17;;;;;;;;;;;25.90;55.20;;;;;;5069670;28;20007;-53
2023/06/23 06:10:43;;;;;;;;;;;25.90;55.70;;;;;;5071328;28;20384;-53
2023/06/23 06:13:08;;;;;;;;;;;25.90;55.70;;;;;;5073571;28;20432;-53
2023/06/23 06:15:34;;;;;;;;;;;25.90;55.60;;;;;;5071915;28;19916;-54
2023/06/23 06:18:00;;;;;;;;;;;26.00;55.70;;;;;;5072131;28;20299;-53
2023/06/23 06:20:25;;;;;;;;;;;26.00;55.60;;;;;;5086629;28;19913;-53
2023/06/23 06:22:51;;;;;;;;;;;26.00;55.90;;;;;;5053447;28;20388;-52
2023/06/23 06:25:16;;;;;;;;;;;25.90;56.00;;;;;;5064203;28;20373;-54
2023/06/23 06:27:42;;;;;;;;;;;25.90;56.20;;;;;;5072589;28;19986;-54
2023/06/23 06:30:08;;;;;;;;;;;25.90;56.10;;;;;;5071378;28;19913;-53
2023/06/23 06:32:34;;;;;;;;;;;25.90;56.20;;;;;;5097802;27;19916;-53
2023/06/23 06:35:04;;;;;;;;;;;26.00;56.10;;;;;;5056115;28;20365;-53
2023/06/23 06:37:33;;;;;;;;;;;26.00;56.20;;;;;;5071952;28;20284;-53
2023/06/23 06:39:58;;;;;;;;;;;26.10;56.10;;;;;;5065466;28;20418;-53
2023/06/23 06:42:24;;;;;;;;;;;26.10;56.10;;;;;;5072942;28;19954;-53
2023/06/23 06:44:49;;;;;;;;;;;26.10;56.30;;;;;;5073014;28;19923;-53
2023/06/23 06:47:15;;;;;;;;;;;26.10;57.00;;;;;;5071043;28;19920;-53
2023/06/23 06:49:40;;;;;;;;;;;26.10;56.10;;;;;;5063077;28;20419;-53
2023/06/23 06:52:06;;;;;;;;;;;26.20;56.10;;;;;;5052855;28;20372;-53
2023/06/23 06:54:31;;;;;;;;;;;26.20;56.30;;;;;;5069787;28;19912;-53
2023/06/23 06:56:57;;;;;;;;;;;26.10;56.50;;;;;;5090897;28;19963;-53
2023/06/23 06:59:22;;;;;;;;;;;26.10;56.60;;;;;;5068974;28;20365;-52
2023/06/23 07:01:48;;;;;;;;;;;26.00;56.60;;;;;;5105229;28;20250;-53
2023/06/23 07:04:13;;;;;;;;;;;26.00;56.90;;;;;;5105259;28;19916;-53
2023/06/23 07:06:40;;;;;;;;;;;25.90;57.30;;;;;;5070796;28;19991;-52
2023/06/23 07:09:05;;;;;;;;;;;25.80;57.70;;;;;;5072679;28;19909;-54
2023/06/23 07:11:31;;;;;;;;;;;25.80;57.40;;;;;;5071918;28;19916;-54
2023/06/23 07:13:57;;;;;;;;;;;25.90;57.30;;;;;;5071884;28;19920;-54
2023/06/23 07:16:24;;;;;;;;;;;25.90;57.40;;;;;;5063345;28;19913;-53
2023/06/23 07:18:50;;;;;;;;;;;26.00;57.20;;;;;;5072267;28;19921;-53
2023/06/23 07:21:15;;;;;;;;;;;25.90;57.50;;;;;;5069390;28;19966;-53
2023/06/23 07:23:41;;;;;;;;;;;26.00;57.60;;;;;;5104957;28;19912;-53
2023/06/23 07:26:06;;;;;;;;;;;25.90;57.60;;;;;;5070990;28;19912;-53
2023/06/23 07:28:31;;;;;;;;;;;25.90;57.70;;;;;;5071262;28;19916;-53
2023/06/23 07:30:57;;;;;;;;;;;25.80;57.90;;;;;;5072171;28;19958;-54
2023/06/23 07:33:22;;;;;;;;;;;25.70;58.30;;;;;;5072265;28;19908;-53
2023/06/23 07:35:48;;;;;;;;;;;25.70;58.50;;;;;;5066406;28;20010;-54
2023/06/23 07:38:13;;;;;;;;;;;25.70;58.50;;;;;;5057275;28;19913;-54
2023/06/23 07:40:39;;;;;;;;;;;25.70;58.40;;;;;;5059391;28;20368;-53
2023/06/23 07:43:04;;;;;;;;;;;25.70;58.60;;;;;;5076094;28;20437;-53
2023/06/23 07:45:30;;;;;;;;;;;25.60;58.90;;;;;;5061521;28;19999;-54
2023/06/23 07:47:55;;;;;;;;;;;25.60;59.30;;;;;;5088665;28;19916;-53
2023/06/23 07:50:20;;;;;;;;;;;25.60;59.30;;;;;;5060917;28;19954;-53
2023/06/23 07:52:51;;;;;;;;;;;25.50;59.50;;;;;;5061556;28;19935;-53
2023/06/23 07:55:19;;;;;;;;;;;25.50;59.70;;;;;;5055571;28;19908;-54
2023/06/23 07:57:45;;;;;;;;;;;25.50;60.00;;;;;;5056104;28;20365;-53
2023/06/23 08:00:11;;;;;;;;;;;25.40;60.40;;;;;;5067952;28;19919;-53
2023/06/23 08:02:36;;;;;;;;;;;25.40;60.70;;;;;;5072870;28;20404;-53
2023/06/23 08:05:02;;;;;;;;;;;25.30;60.90;;;;;;5074511;28;20315;-53
2023/06/23 08:07:27;;;;;;;;;;;25.30;61.10;;;;;;5075236;28;20280;-53
2023/06/23 08:09:52;;;;;;;;;;;25.40;61.10;;;;;;5070270;28;19966;-54
2023/06/23 08:12:18;;;;;;;;;;;25.50;61.20;;;;;;5067604;28;19912;-53
2023/06/23 08:14:43;;;;;;;;;;;25.50;61.20;;;;;;5094048;28;20020;-53
2023/06/23 08:17:09;;;;;;;;;;;25.40;61.60;;;;;;5075269;28;19935;-54
2023/06/23 08:19:35;;;;;;;;;;;25.40;62.10;;;;;;5061660;28;20352;-53
2023/06/23 08:22:00;;;;;;;;;;;25.30;62.30;;;;;;5065847;28;20320;-53
2023/06/23 08:24:26;;;;;;;;;;;25.30;62.30;;;;;;5073194;28;19913;-53
2023/06/23 08:26:51;;;;;;;;;;;25.30;62.40;;;;;;5075149;28;20011;-53
2023/06/23 08:29:17;;;;;;;;;;;25.30;62.70;;;;;;5075419;28;19948;-53
2023/06/23 08:31:42;;;;;;;;;;;25.40;62.60;;;;;;5074513;28;19929;-53
2023/06/23 08:34:08;;;;;;;;;;;25.40;62.70;;;;;;5073960;28;19913;-54
2023/06/23 08:36:33;;;;;;;;;;;25.30;62.80;;;;;;5075178;28;20436;-54
2023/06/23 08:38:58;;;;;;;;;;;25.30;62.90;;;;;;5074449;28;19916;-53
2023/06/23 08:41:24;;;;;;;;;;;25.30;62.90;;;;;;5073826;28;19916;-53
2023/06/23 08:43:49;;;;;;;;;;;25.40;62.80;;;;;;5074308;28;19974;-54
2023/06/23 08:46:15;;;;;;;;;;;25.30;63.00;;;;;;5071965;28;19921;-53
2023/06/23 08:48:50;;;;;;;;;;;25.40;62.80;;;;;;5072643;28;19919;-53
2023/06/23 08:51:15;;;;;;;;;;;25.50;62.40;;;;;;5071875;28;19913;-53
2023/06/23 08:53:42;;;;;;;;;;;25.50;62.70;;;;;;5071441;28;19916;-53
2023/06/23 08:56:07;;;;;;;;;;;25.40;62.80;;;;;;5063751;28;19979;-53
2023/06/23 08:58:33;;;;;;;;;;;25.40;63.10;;;;;;5055020;28;19951;-54
2023/06/23 09:00:58;;;;;;;;;;;25.40;63.40;;;;;;5098475;28;19960;-53
2023/06/23 09:03:23;;;;;;;;;;;25.40;63.50;;;;;;5070523;28;20458;-53
2023/06/23 09:05:49;;;;;;;;;;;25.40;63.60;;;;;;5070225;28;19916;-53
2023/06/23 09:08:14;;;;;;;;;;;25.50;64.50;;;;;;5091444;28;19913;-53
2023/06/23 09:10:40;;;;;;;;;;;25.50;63.50;;;;;;5090117;28;19920;-54
2023/06/23 09:13:24;;;;;;;;;;;25.50;63.90;;;;;;5071239;28;20381;-53
2023/06/23 09:15:50;;;;;;;;;;;25.40;64.70;;;;;;5065424;28;19960;-54
2023/06/23 09:18:16;;;;;;;;;;;25.40;64.30;;;;;;5066718;28;19994;-53
2023/06/23 09:20:45;;;;;;;;;;;25.40;64.40;;;;;;5072579;28;19912;-53
2023/06/23 09:23:17;;;;;;;;;;;25.40;64.10;;;;;;5065038;28;19938;-54
2023/06/23 09:25:54;;;;;;;;;;;25.50;64.10;;;;;;5069390;28;20008;-53
2023/06/23 09:28:22;;;;;;;;;;;25.50;64.20;;;;;;5071835;28;19999;-53
2023/06/23 09:30:48;;;;;;;;;;;25.40;64.20;;;;;;5073558;28;20471;-53
2023/06/23 09:33:13;;;;;;;;;;;25.40;64.50;;;;;;5070149;28;19947;-54
2023/06/23 09:35:46;;;;;;;;;;;25.40;64.30;;;;;;5069403;28;19912;-53
2023/06/23 09:38:12;;;;;;;;;;;25.40;64.50;;;;;;5059923;28;20020;-53
2023/06/23 09:40:38;;;;;;;;;;;25.40;64.60;;;;;;5071737;28;20003;-53
2023/06/23 09:43:03;;;;;;;;;;;25.50;64.40;;;;;;5075111;28;20295;-53
2023/06/23 09:45:30;;;;;;;;;;;25.60;64.10;;;;;;5073532;28;19917;-53
2023/06/23 09:47:55;;;;;;;;;;;25.60;64.20;;;;;;5073742;28;19921;-52
2023/06/23 09:50:21;;;;;;;;;;;25.60;64.20;;;;;;5071544;28;20075;-53
2023/06/23 09:52:47;;;;;;;;;;;25.50;64.60;;;;;;5072672;28;19920;-54
2023/06/23 09:55:12;;;;;;;;;;;25.50;64.80;;;;;;5072961;28;19917;-53
2023/06/23 09:57:38;;;;;;;;;;;25.50;64.70;;;;;;5072657;28;19951;-53
2023/06/23 10:00:08;;;;;;;;;;;25.50;64.90;;;;;;5071558;28;20015;-54
2023/06/23 10:02:33;;;;;;;;;;;25.40;65.20;;;;;;5072826;28;19921;-53
2023/06/23 10:05:02;;;;;;;;;;;25.40;65.20;;;;;;5072179;28;19919;-54
2023/06/23 10:07:28;;;;;;;;;;;25.40;65.60;;;;;;5072184;28;19920;-53
2023/06/23 10:09:54;;;;;;;;;;;25.40;65.30;;;;;;5072072;28;19912;-53
2023/06/23 10:12:21;;;;;;;;;;;25.40;65.50;;;;;;5105847;28;19983;-53
2023/06/23 10:14:49;;;;;;;;;;;25.30;65.60;;;;;;5063685;28;20385;-54
2023/06/23 10:17:15;;;;;;;;;;;25.30;65.70;;;;;;5068849;28;20007;-53
2023/06/23 10:19:42;;;;;;;;;;;25.30;65.60;;;;;;5070932;28;20315;-54
2023/06/23 10:22:08;;;;;;;;;;;25.40;65.40;;;;;;5057910;28;19916;-53
2023/06/23 10:24:34;;;;;;;;;;;25.40;65.20;;;;;;5069513;28;19924;-53
2023/06/23 10:26:59;;;;;;;;;;;25.30;65.10;;;;;;5071113;28;19912;-53
2023/06/23 10:29:24;;;;;;;;;;;25.40;65.10;;;;;;5070423;28;20006;-53
2023/06/23 10:31:51;;;;;;;;;;;25.40;65.00;;;;;;5072124;28;19916;-54
2023/06/23 10:34:17;;;;;;;;;;;25.40;65.00;;;;;;5096616;28;19912;-53
2023/06/23 10:36:43;;;;;;;;;;;25.40;64.80;;;;;;5098382;28;20373;-53
2023/06/23 10:39:10;;;;;;;;;;;25.40;65.00;;;;;;5068673;28;19916;-53
2023/06/23 10:41:36;;;;;;;;;;;25.40;65.00;;;;;;5071628;28;20293;-53
2023/06/23 10:44:02;;;;;;;;;;;25.40;64.80;;;;;;5071532;28;19919;-53
2023/06/23 10:46:27;;;;;;;;;;;25.40;64.80;;;;;;5072133;28;19920;-55
2023/06/23 10:48:53;;;;;;;;;;;25.40;64.90;;;;;;5054879;28;19932;-53
2023/06/23 10:51:18;;;;;;;;;;;25.30;64.90;;;;;;5048139;28;19965;-53
2023/06/23 10:53:45;;;;;;;;;;;25.30;64.80;;;;;;5089824;28;19968;-53
2023/06/23 10:56:10;;;;;;;;;;;25.40;64.60;;;;;;5055678;28;19928;-54
2023/06/23 10:58:49;;;;;;;;;;;25.40;64.40;;;;;;5042765;28;19912;-53
2023/06/23 11:01:15;;;;;;;;;;;25.40;64.40;;;;;;5054215;28;20327;-54
2023/06/23 11:03:41;;;;;;;;;;;25.50;64.30;;;;;;5078723;28;19934;-53
2023/06/23 11:06:07;;;;;;;;;;;25.40;64.40;;;;;;5060106;28;19963;-53
2023/06/23 11:08:39;;;;;;;;;;;25.40;64.30;;;;;;5068597;28;19996;-53
2023/06/23 11:11:09;;;;;;;;;;;25.40;64.60;;;;;;5093753;27;19913;-53
2023/06/23 11:13:37;;;;;;;;;;;25.40;64.40;;;;;;5053345;28;19960;-54
2023/06/23 11:16:02;;;;;;;;;;;25.50;64.20;;;;;;5057879;28;19913;-53
2023/06/23 11:18:28;;;;;;;;;;;25.40;64.30;;;;;;5058392;28;20304;-54
2023/06/23 11:20:54;;;;;;;;;;;25.40;64.50;;;;;;5060271;28;19921;-53
2023/06/23 11:23:19;;;;;;;;;;;25.50;64.70;;;;;;5065080;28;20446;-55
2023/06/23 11:25:47;;;;;;;;;;;25.40;64.70;;;;;;5060491;28;19913;-55
2023/06/23 11:28:48;;;;;;;;;;;25.40;64.70;;;;;;5059002;28;19923;-55
2023/06/23 11:31:14;;;;;;;;;;;25.30;65.20;;;;;;5036674;28;19979;-56
2023/06/23 11:33:43;;;;;;;;;;;25.30;65.30;;;;;;5060021;28;19917;-53
2023/06/23 11:36:09;;;;;;;;;;;25.40;65.10;;;;;;5069462;28;19923;-53
2023/06/23 11:38:35;;;;;;;;;;;25.30;65.20;;;;;;5064580;28;19920;-53
2023/06/23 11:41:01;;;;;;;;;;;25.30;65.50;;;;;;5055909;28;20311;-54
2023/06/23 11:43:30;;;;;;;;;;;25.30;65.30;;;;;;5068266;28;19946;-53
2023/06/23 11:45:56;;;;;;;;;;;25.30;65.20;;;;;;5068544;28;19935;-53
2023/06/23 11:48:22;;;;;;;;;;;25.30;65.30;;;;;;5072840;28;19913;-54
2023/06/23 11:50:47;;;;;;;;;;;25.30;64.90;;;;;;5062246;28;19938;-54
2023/06/23 11:53:13;;;;;;;;;;;25.40;65.00;;;;;;5071395;28;20368;-54
2023/06/23 11:55:39;;;;;;;;;;;25.40;64.90;;;;;;5066307;28;19927;-54
2023/06/23 11:58:04;;;;;;;;;;;25.30;64.90;;;;;;5088581;28;20425;-54
2023/06/23 12:00:30;;;;;;;;;;;25.30;64.70;;;;;;5065315;28;19923;-54
2023/06/23 12:02:58;;;;;;;;;;;25.40;64.80;;;;;;5051752;28;20326;-54
2023/06/23 12:05:23;;;;;;;;;;;25.40;64.80;;;;;;5056522;28;19916;-54
2023/06/23 12:07:49;;;;;;;;;;;25.40;64.60;;;;;;5067574;28;19913;-54
2023/06/23 12:10:15;;;;;;;;;;;25.40;64.50;;;;;;5063897;28;19912;-53
2023/06/23 12:12:43;;;;;;;;;;;25.30;65.00;;;;;;5058001;28;19920;-53
2023/06/23 12:15:09;;;;;;;;;;;25.30;65.10;;;;;;5056926;28;19956;-53
2023/06/23 12:17:39;;;;;;;;;;;25.30;64.70;;;;;;5067163;28;19913;-53
2023/06/23 12:20:04;;;;;;;;;;;25.30;64.90;;;;;;5056399;28;19913;-53
2023/06/23 12:22:36;;;;;;;;;;;25.30;64.90;;;;;;5065606;28;19921;-54
2023/06/23 12:25:02;;;;;;;;;;;25.30;64.80;;;;;;5067426;28;20329;-53
2023/06/23 12:27:29;;;;;;;;;;;25.30;64.60;;;;;;5064935;28;20023;-53
2023/06/23 12:29:54;;;;;;;;;;;25.40;64.50;;;;;;5063887;28;20075;-54
2023/06/23 12:32:19;;;;;;;;;;;25.30;64.70;;;;;;5067410;28;20003;-54
2023/06/23 12:34:45;;;;;;;;;;;25.20;64.80;;;;;;5062880;28;19916;-53
2023/06/23 12:37:11;;;;;;;;;;;25.20;64.90;;;;;;5066056;28;19924;-53
2023/06/23 12:39:37;;;;;;;;;;;25.10;65.00;;;;;;5065335;28;19921;-53
2023/06/23 12:42:03;;;;;;;;;;;25.10;65.00;;;;;;5074801;28;19934;-53
2023/06/23 12:44:32;;;;;;;;;;;25.20;64.80;;;;;;5074050;28;19916;-53
2023/06/23 12:47:04;;;;;;;;;;;25.20;64.60;;;;;;5065943;28;20400;-54
2023/06/23 12:49:33;;;;;;;;;;;25.20;64.20;;;;;;5092736;27;19913;-53
2023/06/23 12:52:00;;;;;;;;;;;25.30;64.40;;;;;;5068108;28;19949;-53
2023/06/23 12:54:26;;;;;;;;;;;25.20;64.30;;;;;;5069692;28;19916;-54
2023/06/23 12:56:55;;;;;;;;;;;25.20;64.40;;;;;;5064479;28;19912;-56
2023/06/23 12:59:20;;;;;;;;;;;25.20;64.40;;;;;;5062911;28;19924;-54
2023/06/23 13:01:47;;;;;;;;;;;25.20;64.20;;;;;;5059124;28;19912;-55
2023/06/23 13:04:13;;;;;;;;;;;25.30;64.20;;;;;;5074571;28;19959;-54
2023/06/23 13:06:38;;;;;;;;;;;25.30;64.00;;;;;;5065561;28;20373;-54
2023/06/23 13:09:04;;;;;;;;;;;25.30;63.80;;;;;;5063958;28;19982;-54
2023/06/23 13:11:30;;;;;;;;;;;25.30;63.60;;;;;;5067351;28;19912;-54
2023/06/23 13:13:56;;;;;;;;;;;25.30;63.30;;;;;;5067017;28;20257;-54
2023/06/23 13:16:21;;;;;;;;;;;25.40;63.20;;;;;;5072521;28;19912;-54
2023/06/23 13:18:47;;;;;;;;;;;25.40;63.00;;;;;;5064199;28;19999;-54
2023/06/23 13:21:12;;;;;;;;;;;25.40;62.70;;;;;;5101883;28;19920;-54
2023/06/23 13:23:38;;;;;;;;;;;25.40;62.40;;;;;;5046034;28;19920;-54
2023/06/23 13:26:03;;;;;;;;;;;25.40;62.10;;;;;;5062340;28;19927;-54
2023/06/23 13:28:29;;;;;;;;;;;25.40;61.60;;;;;;5063819;28;19912;-54
2023/06/23 13:30:54;;;;;;;;;;;25.40;61.10;;;;;;5060183;28;20404;-54
2023/06/23 13:33:22;;;;;;;;;;;25.40;60.70;;;;;;5060879;28;20015;-55
2023/06/23 13:35:47;;;;;;;;;;;25.40;60.70;;;;;;5058202;28;19917;-54
2023/06/23 13:38:13;;;;;;;;;;;25.50;60.20;;;;;;5056521;28;19916;-55
2023/06/23 13:40:38;;;;;;;;;;;25.50;59.70;;;;;;5063114;28;19959;-54
2023/06/23 13:43:04;;;;;;;;;;;25.50;59.50;;;;;;5063644;28;20273;-54
2023/06/23 13:45:29;;;;;;;;;;;25.50;59.40;;;;;;5059161;28;19916;-54
2023/06/23 13:47:55;;;;;;;;;;;25.50;59.20;;;;;;5060915;28;19913;-55
2023/06/23 13:50:20;;;;;;;;;;;25.60;58.80;;;;;;5065129;28;19923;-54
2023/06/23 13:52:46;;;;;;;;;;;25.60;58.60;;;;;;5066536;28;19912;-54
2023/06/23 13:55:12;;;;;;;;;;;25.60;58.10;;;;;;5060872;28;19927;-54
2023/06/23 13:57:37;;;;;;;;;;;25.60;57.90;;;;;;5064935;28;20015;-54
2023/06/23 14:00:05;;;;;;;;;;;25.70;57.60;;;;;;5062084;28;19912;-54
2023/06/23 14:02:30;;;;;;;;;;;25.70;57.80;;;;;;5058347;28;19924;-55
2023/06/23 14:04:56;;;;;;;;;;;25.70;57.50;;;;;;5057966;28;20358;-54
2023/06/23 14:07:21;;;;;;;;;;;25.70;57.40;;;;;;5057668;28;20372;-54
2023/06/23 14:09:47;;;;;;;;;;;25.70;57.20;;;;;;5068100;28;20397;-54
2023/06/23 14:12:12;;;;;;;;;;;25.70;56.50;;;;;;5062203;28;20431;-54